Time;durP1;ratioP1;P1;durP2;ratioP2;P2;SDS_P1;SDS_P2;PMS_P1;PMS_P2;Temp;Humidity;BMP_temperature;BMP_pressure;BME280_temperature;BME280_humidity;BME280_pressure;Samples;Min_cycle;Max_cycle;Signal;HPM_P1;HPM_P2
2022/05/02 00:02:26;;;;;;;;;;;;;;;23.15;27.53;99163.75;4451411;32;34066;-83
2022/05/02 00:04:54;;;;;;;;;;;;;;;23.26;27.47;99166.81;4447723;32;33639;-83
2022/05/02 00:07:21;;;;;;;;;;;;;;;23.35;27.32;99158.53;4447860;32;33963;-84
2022/05/02 00:09:48;;;;;;;;;;;;;;;23.44;27.36;99147.56;4455181;32;33803;-84
2022/05/02 00:12:16;;;;;;;;;;;;;;;22.39;29.61;99157.69;4457582;32;33115;-83
2022/05/02 00:14:43;;;;;;;;;;;;;;;21.99;29.24;99145.84;4450166;32;34567;-83
2022/05/02 00:17:11;;;;;;;;;;;;;;;22.49;28.81;99160.84;4455482;32;34235;-82
2022/05/02 00:19:38;;;;;;;;;;;;;;;22.67;28.72;99154.91;4455459;32;34320;-84
2022/05/02 00:22:05;;;;;;;;;;;;;;;22.90;28.60;99153.19;4466052;32;33681;-84
2022/05/02 00:24:32;;;;;;;;;;;;;;;22.54;29.57;99148.34;4456561;32;34068;-83
2022/05/02 00:27:00;;;;;;;;;;;;;;;22.32;29.97;99148.25;4464466;32;34453;-84
2022/05/02 00:29:27;;;;;;;;;;;;;;;22.60;29.13;99153.41;4457547;32;34381;-84
2022/05/02 00:31:54;;;;;;;;;;;;;;;22.38;29.53;99157.75;4460161;32;33381;-84
2022/05/02 00:34:22;;;;;;;;;;;;;;;22.11;30.37;99150.69;4467502;32;34284;-83
2022/05/02 00:36:49;;;;;;;;;;;;;;;22.25;30.25;99152.03;4465790;32;35245;-83
2022/05/02 00:39:16;;;;;;;;;;;;;;;22.20;30.33;99149.56;4460110;32;34200;-83
2022/05/02 00:41:44;;;;;;;;;;;;;;;22.01;30.30;99158.97;4467620;32;33098;-83
2022/05/02 00:44:11;;;;;;;;;;;;;;;22.01;30.66;99148.41;4466526;32;34059;-83
2022/05/02 00:46:39;;;;;;;;;;;;;;;21.85;30.41;99154.22;4464803;32;33754;-82
2022/05/02 00:49:06;;;;;;;;;;;;;;;21.77;30.40;99158.88;4472943;32;34779;-84
2022/05/02 00:51:33;;;;;;;;;;;;;;;22.27;29.91;99163.41;4467604;32;33239;-82
2022/05/02 00:54:01;;;;;;;;;;;;;;;22.23;29.84;99160.00;4460884;32;34378;-84
2022/05/02 00:56:28;;;;;;;;;;;;;;;22.49;29.81;99160.84;4463678;32;34203;-83
2022/05/02 00:58:56;;;;;;;;;;;;;;;22.37;29.50;99158.66;4464293;32;34118;-84
2022/05/02 01:01:23;;;;;;;;;;;;;;;22.48;29.18;99160.00;4466576;32;33198;-83
2022/05/02 01:03:50;;;;;;;;;;;;;;;22.19;29.88;99163.66;4464221;32;35017;-82
2022/05/02 01:09:05;;;;;;;;;;;;;;;22.62;28.87;99158.66;4459121;32;33785;-83
2022/05/02 01:11:32;;;;;;;;;;;;;;;22.11;29.83;99155.13;4461280;32;33450;-83
2022/05/02 01:13:59;;;;;;;;;;;;;;;22.40;29.64;99159.41;4467942;32;34176;-83
2022/05/02 01:16:27;;;;;;;;;;;;;;;22.42;29.68;99164.63;4458215;32;34344;-83
2022/05/02 01:18:56;;;;;;;;;;;;;;;22.18;30.05;99159.31;4450611;32;34030;-82
2022/05/02 01:21:25;;;;;;;;;;;;;;;22.37;29.63;99156.03;4452170;32;33292;-83
2022/05/02 01:23:53;;;;;;;;;;;;;;;22.69;28.95;99163.66;4452719;32;34978;-83
2022/05/02 01:26:21;;;;;;;;;;;;;;;22.62;29.42;99156.88;4450620;32;34404;-83
2022/05/02 01:28:49;;;;;;;;;;;;;;;22.57;29.54;99149.09;4452252;32;34822;-84
2022/05/02 01:31:18;;;;;;;;;;;;;;;22.34;29.98;99152.56;4442982;32;33240;-83
2022/05/02 01:33:45;;;;;;;;;;;;;;;22.46;29.58;99155.69;4451180;32;34176;-84
2022/05/02 01:36:13;;;;;;;;;;;;;;;22.49;29.40;99158.22;4449448;32;33713;-83
2022/05/02 01:38:41;;;;;;;;;;;;;;;22.75;28.91;99167.84;4452597;32;34451;-84
2022/05/02 01:41:09;;;;;;;;;;;;;;;22.79;29.10;99166.81;4452257;32;33530;-83
2022/05/02 01:43:36;;;;;;;;;;;;;;;22.25;30.14;99163.47;4451585;32;34851;-83
2022/05/02 01:46:05;;;;;;;;;;;;;;;22.58;29.94;99169.34;4451935;32;34493;-84
2022/05/02 01:48:32;;;;;;;;;;;;;;;22.77;29.50;99176.59;4451911;32;34845;-84
2022/05/02 01:50:59;;;;;;;;;;;;;;;22.93;29.09;99177.78;4452227;32;34131;-84
2022/05/02 01:53:27;;;;;;;;;;;;;;;22.94;29.30;99178.63;4450923;32;34953;-83
2022/05/02 01:55:54;;;;;;;;;;;;;;;22.96;29.40;99182.09;4451569;32;34461;-83
2022/05/02 01:58:22;;;;;;;;;;;;;;;22.56;30.07;99172.94;4450423;32;34445;-83
2022/05/02 02:00:49;;;;;;;;;;;;;;;22.31;30.59;99168.53;4451537;32;33234;-84
2022/05/02 02:03:17;;;;;;;;;;;;;;;22.17;30.78;99173.44;4451503;32;33938;-83
2022/05/02 02:05:50;;;;;;;;;;;;;;;22.44;30.95;99173.38;4451836;32;34419;-82
2022/05/02 02:08:24;;;;;;;;;;;;;;;22.71;30.04;99171.53;4452001;32;33665;-84
2022/05/02 02:10:51;;;;;;;;;;;;;;;22.42;30.51;99168.13;4452183;32;33820;-83
2022/05/02 02:13:20;;;;;;;;;;;;;;;22.23;30.61;99169.69;4450252;32;34898;-84
2022/05/02 02:15:47;;;;;;;;;;;;;;;22.33;30.63;99171.97;4451998;32;34283;-84
2022/05/02 02:18:14;;;;;;;;;;;;;;;22.68;29.94;99161.91;4469630;32;33859;-83
2022/05/02 02:20:42;;;;;;;;;;;;;;;22.69;30.57;99166.31;4479536;32;33558;-84
2022/05/02 02:23:09;;;;;;;;;;;;;;;22.11;31.37;99166.53;4468347;32;34088;-83
2022/05/02 02:25:37;;;;;;;;;;;;;;;22.16;31.08;99166.44;4468291;32;34445;-83
2022/05/02 02:28:05;;;;;;;;;;;;;;;22.79;30.15;99175.59;4454601;32;32563;-84
2022/05/02 02:30:32;;;;;;;;;;;;;;;22.62;30.44;99167.44;4479021;32;33433;-84
2022/05/02 02:33:00;;;;;;;;;;;;;;;22.69;30.65;99158.38;4482987;32;33979;-83
2022/05/02 02:35:27;;;;;;;;;;;;;;;22.25;31.06;99162.59;4482770;32;34485;-82
2022/05/02 02:37:55;;;;;;;;;;;;;;;22.25;30.21;99171.38;4465265;32;33821;-82
2022/05/02 02:40:22;;;;;;;;;;;;;;;22.46;29.21;99168.88;4473766;32;33737;-84
2022/05/02 02:42:49;;;;;;;;;;;;;;;22.68;28.97;99161.91;4462147;32;34228;-83
2022/05/02 02:45:17;;;;;;;;;;;;;;;22.40;30.00;99164.69;4462698;32;35114;-83
2022/05/02 02:47:44;;;;;;;;;;;;;;;22.75;29.69;99163.41;4480587;32;35100;-84
2022/05/02 02:50:11;;;;;;;;;;;;;;;22.27;30.85;99161.59;4481018;32;33621;-84
2022/05/02 02:52:39;;;;;;;;;;;;;;;23.01;30.07;99158.97;4454241;32;34936;-83
2022/05/02 02:55:06;;;;;;;;;;;;;;;23.06;30.22;99168.44;4485506;31;33915;-83
2022/05/02 02:57:34;;;;;;;;;;;;;;;22.32;31.67;99162.34;4470633;32;34199;-84
2022/05/02 03:00:01;;;;;;;;;;;;;;;22.33;31.54;99169.34;4468134;32;34205;-83
2022/05/02 03:02:29;;;;;;;;;;;;;;;22.73;30.87;99165.28;4457374;32;33372;-84
2022/05/02 03:07:43;;;;;;;;;;;;;;;22.92;30.57;99161.94;4475333;32;34268;-84
2022/05/02 03:10:11;;;;;;;;;;;;;;;22.56;31.58;99162.37;4473275;32;34370;-82
2022/05/02 03:12:38;;;;;;;;;;;;;;;22.58;31.15;99158.75;4481248;32;34268;-84
2022/05/02 03:15:05;;;;;;;;;;;;;;;22.20;31.78;99165.41;4468555;32;35136;-83
2022/05/02 03:17:33;;;;;;;;;;;;;;;22.70;31.40;99162.72;4479061;32;34130;-84
2022/05/02 03:20:00;;;;;;;;;;;;;;;22.77;31.53;99164.22;4474727;32;33148;-84
2022/05/02 03:22:29;;;;;;;;;;;;;;;22.74;31.58;99166.97;4478334;32;33992;-83
2022/05/02 03:24:56;;;;;;;;;;;;;;;23.05;31.06;99176.44;4481159;32;34002;-83
2022/05/02 03:27:23;;;;;;;;;;;;;;;22.94;31.29;99160.97;4473614;32;34946;-83
2022/05/02 03:29:50;;;;;;;;;;;;;;;22.61;31.33;99151.62;4476064;32;33389;-83
2022/05/02 03:32:18;;;;;;;;;;;;;;;22.67;31.35;99160.19;4478546;32;33809;-83
2022/05/02 03:34:45;;;;;;;;;;;;;;;22.63;31.13;99158.59;4475440;32;34382;-83
2022/05/02 03:37:13;;;;;;;;;;;;;;;22.53;31.36;99151.91;4479960;32;35059;-83
2022/05/02 03:39:41;;;;;;;;;;;;;;;22.61;31.76;99156.91;4481653;32;33406;-83
2022/05/02 03:42:08;;;;;;;;;;;;;;;22.62;31.47;99151.59;4462623;32;33329;-82
2022/05/02 03:44:35;;;;;;;;;;;;;;;22.42;31.62;99143.50;4467380;32;33666;-83
2022/05/02 03:47:03;;;;;;;;;;;;;;;22.40;31.40;99155.91;4479605;32;34663;-83
2022/05/02 03:49:31;;;;;;;;;;;;;;;22.39;31.24;99148.88;4481491;32;34071;-83
2022/05/02 03:51:58;;;;;;;;;;;;;;;22.39;31.29;99143.59;4481381;32;35014;-82
2022/05/02 03:54:25;;;;;;;;;;;;;;;22.65;31.04;99146.16;4479704;32;35249;-83
2022/05/02 03:56:52;;;;;;;;;;;;;;;22.79;30.93;99154.44;4475441;32;34249;-83
2022/05/02 03:59:20;;;;;;;;;;;;;;;22.58;31.47;99144.69;4475644;32;34457;-83
2022/05/02 04:01:47;;;;;;;;;;;;;;;22.69;31.23;99147.81;4483347;32;35148;-83
2022/05/02 04:04:15;;;;;;;;;;;;;;;22.83;31.01;99144.62;4478805;32;34412;-84
2022/05/02 04:06:42;;;;;;;;;;;;;;;22.33;31.67;99144.69;4474804;32;35022;-83
2022/05/02 04:09:09;;;;;;;;;;;;;;;22.40;31.72;99145.34;4474670;32;33548;-82
2022/05/02 04:11:37;;;;;;;;;;;;;;;22.48;31.63;99140.66;4477988;32;34984;-83
2022/05/02 04:14:04;;;;;;;;;;;;;;;22.53;31.80;99143.97;4477678;32;34287;-84
2022/05/02 04:16:32;;;;;;;;;;;;;;;22.45;31.98;99140.75;4483974;32;35109;-84
2022/05/02 04:19:00;;;;;;;;;;;;;;;22.52;32.17;99144.91;4475391;32;33330;-83
2022/05/02 04:21:27;;;;;;;;;;;;;;;22.53;32.61;99146.63;4477600;32;34864;-82
2022/05/02 04:23:59;;;;;;;;;;;;;;;23.00;32.02;99149.31;4480032;32;34300;-81
2022/05/02 04:26:26;;;;;;;;;;;;;;;22.91;32.27;99145.22;4466741;32;33884;-82
2022/05/02 04:28:53;;;;;;;;;;;;;;;22.08;33.78;99148.16;4481338;32;33283;-83
2022/05/02 04:31:20;;;;;;;;;;;;;;;22.24;33.47;99147.69;4479808;32;34341;-82
2022/05/02 04:33:48;;;;;;;;;;;;;;;22.64;32.98;99149.72;4482720;32;32974;-83
2022/05/02 04:36:16;;;;;;;;;;;;;;;23.05;33.08;99160.56;4477776;32;33317;-83
2022/05/02 04:38:43;;;;;;;;;;;;;;;22.82;33.64;99153.50;4478034;32;33320;-82
2022/05/02 04:41:14;;;;;;;;;;;;;;;22.73;33.63;99151.16;4477202;32;34067;-82
2022/05/02 04:43:41;;;;;;;;;;;;;;;22.65;33.32;99153.22;4468490;32;34482;-82
2022/05/02 04:46:09;;;;;;;;;;;;;;;22.48;30.80;99156.50;4475682;32;34032;-83
2022/05/02 04:48:37;;;;;;;;;;;;;;;22.32;32.53;99159.69;4483958;32;33318;-82
2022/05/02 04:51:04;;;;;;;;;;;;;;;22.57;31.31;99158.78;4482151;32;34111;-81
2022/05/02 04:53:31;;;;;;;;;;;;;;;22.47;32.71;99157.44;4484085;32;34144;-82
2022/05/02 04:55:58;;;;;;;;;;;;;;;23.11;31.71;99170.94;4476911;32;34042;-83
2022/05/02 04:58:26;;;;;;;;;;;;;;;23.40;29.53;99171.56;4470844;32;33531;-83
2022/05/02 05:00:53;;;;;;;;;;;;;;;22.85;30.40;99173.66;4481734;32;34565;-82
2022/05/02 05:03:21;;;;;;;;;;;;;;;22.39;30.34;99176.19;4468750;32;35053;-83
2022/05/02 05:05:48;;;;;;;;;;;;;;;21.47;30.12;99183.63;4472356;32;34376;-83
2022/05/02 05:08:16;;;;;;;;;;;;;;;21.74;30.08;99171.31;4484184;32;34048;-82
2022/05/02 05:10:53;;;;;;;;;;;;;;;21.50;29.80;99179.09;4483382;32;33549;-82
2022/05/02 05:13:22;;;;;;;;;;;;;;;21.55;30.30;99198.28;4469089;32;35327;-82
2022/05/02 05:16:22;;;;;;;;;;;;;;;19.66;32.87;99188.50;4466142;32;35910;-83
2022/05/02 05:18:52;;;;;;;;;;;;;;;19.66;33.36;99183.25;4451568;32;31925;-82
2022/05/02 05:21:38;;;;;;;;;;;;;;;19.45;33.87;99193.34;4451513;32;35008;-83
2022/05/02 05:24:25;;;;;;;;;;;;;;;20.63;32.50;99184.31;4452132;32;34490;-83
2022/05/02 05:26:55;;;;;;;;;;;;;;;20.12;33.62;99200.56;4451274;32;34686;-83
2022/05/02 05:29:22;;;;;;;;;;;;;;;19.73;34.06;99194.50;4452775;32;33862;-84
2022/05/02 05:32:12;;;;;;;;;;;;;;;19.53;34.34;99193.19;4452060;32;33632;-83
2022/05/02 05:34:54;;;;;;;;;;;;;;;19.98;34.38;99190.38;4444499;32;34341;-83
2022/05/02 05:37:40;;;;;;;;;;;;;;;21.05;32.82;99187.47;4450969;32;34623;-83
2022/05/02 05:40:26;;;;;;;;;;;;;;;21.61;31.87;99189.31;4452617;32;34171;-82
2022/05/02 05:43:02;;;;;;;;;;;;;;;21.83;31.31;99178.94;4452345;32;33636;-81
2022/05/02 05:45:41;;;;;;;;;;;;;;;22.11;31.51;99185.00;4451808;32;35113;-83
2022/05/02 05:48:13;;;;;;;;;;;;;;;22.60;30.91;99179.84;4451414;32;33892;-83
2022/05/02 05:50:42;;;;;;;;;;;;;;;21.76;32.14;99180.91;4451275;32;33257;-83
2022/05/02 05:53:25;;;;;;;;;;;;;;;21.95;31.94;99177.69;4452933;32;33993;-83
2022/05/02 05:56:00;;;;;;;;;;;;;;;22.08;32.00;99177.19;4452076;32;33618;-83
2022/05/02 05:58:27;;;;;;;;;;;;;;;22.20;31.78;99183.91;4452570;32;34375;-83
2022/05/02 06:01:03;;;;;;;;;;;;;;;22.25;32.35;99178.44;4451137;32;33379;-81
2022/05/02 06:03:34;;;;;;;;;;;;;;;23.08;31.63;99184.28;4450865;32;32755;-82
2022/05/02 06:06:01;;;;;;;;;;;;;;;22.76;30.60;99175.69;4452162;32;33729;-83
2022/05/02 06:08:28;;;;;;;;;;;;;;;22.90;32.49;99182.28;4451047;32;34139;-82
2022/05/02 06:10:56;;;;;;;;;;;;;;;23.27;32.49;99182.62;4450933;32;33433;-82
2022/05/02 06:13:25;;;;;;;;;;;;;;;23.58;32.83;99181.44;4451080;32;33634;-83
2022/05/02 06:19:02;;;;;;;;;;;;;;;23.57;33.95;99185.00;4430562;32;33993;-83
2022/05/02 06:21:30;;;;;;;;;;;;;;;23.45;34.54;99191.66;4466264;32;34259;-83
2022/05/02 06:23:57;;;;;;;;;;;;;;;23.33;34.65;99185.94;4466483;32;34903;-83
2022/05/02 06:26:25;;;;;;;;;;;;;;;23.83;33.94;99170.75;4466347;32;34841;-84
2022/05/02 06:28:52;;;;;;;;;;;;;;;24.07;33.57;99181.25;4466517;32;34331;-83
2022/05/02 06:31:25;;;;;;;;;;;;;;;24.30;33.64;99186.41;4468141;32;33566;-83
2022/05/02 06:33:52;;;;;;;;;;;;;;;24.19;34.05;99181.56;4476843;32;34021;-83
2022/05/02 06:36:19;;;;;;;;;;;;;;;24.16;34.35;99188.78;4483481;32;34422;-84
2022/05/02 06:38:47;;;;;;;;;;;;;;;24.04;35.24;99185.72;4483726;32;34493;-83
2022/05/02 06:41:30;;;;;;;;;;;;;;;23.69;36.12;99183.69;4473733;32;33362;-82
2022/05/02 06:44:02;;;;;;;;;;;;;;;23.87;35.79;99182.06;4453865;32;34265;-83
2022/05/02 06:46:53;;;;;;;;;;;;;;;23.22;36.44;99195.19;4467599;32;34321;-83
2022/05/02 06:49:20;;;;;;;;;;;;;;;24.04;33.31;99193.66;4438366;32;34427;-83
2022/05/02 06:51:51;;;;;;;;;;;;;;;22.87;35.51;99207.03;4453167;32;33366;-84
2022/05/02 06:54:34;;;;;;;;;;;;;;;21.62;36.67;99220.06;4453606;32;34351;-84
2022/05/02 06:57:20;;;;;;;;;;;;;;;21.44;38.34;99212.72;4467544;32;33981;-84
2022/05/02 06:59:47;;;;;;;;;;;;;;;21.57;39.14;99214.94;4453393;32;35274;-84
2022/05/02 07:02:24;;;;;;;;;;;;;;;20.80;41.45;99218.97;4467539;32;33571;-83
2022/05/02 07:04:52;;;;;;;;;;;;;;;21.51;41.03;99219.53;4467736;32;34106;-84
2022/05/02 07:07:38;;;;;;;;;;;;;;;21.02;39.27;99219.19;4467666;32;34906;-83
2022/05/02 07:10:06;;;;;;;;;;;;;;;20.00;39.42;99216.63;4452806;32;34540;-84
2022/05/02 07:12:34;;;;;;;;;;;;;;;19.44;41.41;99227.59;4467578;32;33703;-83
2022/05/02 07:15:03;;;;;;;;;;;;;;;19.78;41.38;99222.44;4453602;32;34914;-85
2022/05/02 07:17:57;;;;;;;;;;;;;;;20.39;41.46;99220.03;4460628;32;34160;-85
2022/05/02 07:20:24;;;;;;;;;;;;;;;20.13;40.62;99223.34;4468825;32;34847;-83
2022/05/02 07:22:55;;;;;;;;;;;;;;;20.40;38.88;99216.50;4483199;32;34069;-85
2022/05/02 07:25:22;;;;;;;;;;;;;;;20.06;40.05;99219.12;4468823;32;34783;-85
2022/05/02 07:28:05;;;;;;;;;;;;;;;20.41;40.12;99211.19;4467765;32;34433;-85
2022/05/02 07:30:32;;;;;;;;;;;;;;;21.06;38.33;99214.69;4476431;32;34745;-86
2022/05/02 07:33:00;;;;;;;;;;;;;;;20.77;38.90;99224.31;4478570;32;33669;-84
2022/05/02 07:35:27;;;;;;;;;;;;;;;20.71;40.11;99221.84;4458066;32;33925;-86
2022/05/02 07:37:54;;;;;;;;;;;;;;;21.04;38.91;99222.66;4476971;32;35343;-84
2022/05/02 07:40:22;;;;;;;;;;;;;;;21.72;37.67;99210.97;4466672;32;35500;-83
2022/05/02 07:42:50;;;;;;;;;;;;;;;21.76;36.24;99209.94;4474723;32;33528;-83
2022/05/02 07:45:20;;;;;;;;;;;;;;;21.03;36.75;99204.25;4461396;32;33887;-82
2022/05/02 07:47:48;;;;;;;;;;;;;;;21.60;37.06;99212.22;4468765;32;35136;-81
2022/05/02 07:50:15;;;;;;;;;;;;;;;21.82;38.06;99212.41;4468567;32;33776;-83
2022/05/02 07:52:42;;;;;;;;;;;;;;;22.10;37.29;99206.19;4482697;32;33746;-85
2022/05/02 07:55:10;;;;;;;;;;;;;;;22.64;36.60;99207.87;4461503;32;35128;-84
2022/05/02 07:57:39;;;;;;;;;;;;;;;22.54;34.95;99206.47;4466597;32;34304;-84
2022/05/02 08:00:07;;;;;;;;;;;;;;;22.32;35.88;99207.22;4468575;32;33808;-84
2022/05/02 08:02:38;;;;;;;;;;;;;;;22.04;36.24;99212.53;4482494;32;33719;-84
2022/05/02 08:05:06;;;;;;;;;;;;;;;22.30;35.61;99203.75;4482602;32;34154;-84
2022/05/02 08:07:39;;;;;;;;;;;;;;;22.42;36.13;99206.91;4482180;32;34337;-84
2022/05/02 08:10:25;;;;;;;;;;;;;;;21.90;35.94;99213.94;4482436;32;35335;-83
2022/05/02 08:12:52;;;;;;;;;;;;;;;21.64;36.14;99214.75;4482639;32;33891;-83
2022/05/02 08:15:26;;;;;;;;;;;;;;;22.43;35.58;99206.88;4482354;32;34508;-84
2022/05/02 08:18:12;;;;;;;;;;;;;;;21.73;36.07;99212.69;4482585;32;35032;-83
2022/05/02 08:20:42;;;;;;;;;;;;;;;21.91;38.05;99213.00;4482358;32;34490;-83
2022/05/02 08:29:00;;;;;;;;;;;;;;;22.69;36.42;99205.94;4482210;32;34266;-84
2022/05/02 08:31:46;;;;;;;;;;;;;;;23.60;33.54;99195.47;4482066;32;34035;-84
2022/05/02 08:34:25;;;;;;;;;;;;;;;23.84;32.76;99196.28;4482104;32;33390;-84
2022/05/02 08:37:05;;;;;;;;;;;;;;;23.74;32.00;99194.94;4482010;32;33998;-84
2022/05/02 08:39:37;;;;;;;;;;;;;;;24.36;31.71;99193.22;4482047;32;33472;-84
2022/05/02 08:42:14;;;;;;;;;;;;;;;24.32;32.61;99194.28;4468031;32;33908;-84
2022/05/02 08:45:07;;;;;;;;;;;;;;;23.88;31.94;99183.78;4467858;32;33558;-84
2022/05/02 08:47:53;;;;;;;;;;;;;;;24.47;31.17;99193.66;4465737;32;33732;-84
2022/05/02 08:50:22;;;;;;;;;;;;;;;24.57;33.03;99187.03;4484212;32;35196;-84
2022/05/02 08:53:02;;;;;;;;;;;;;;;24.66;32.59;99188.41;4483976;32;35085;-84
2022/05/02 08:55:35;;;;;;;;;;;;;;;24.49;31.32;99189.16;4484298;32;33363;-84
2022/05/02 08:58:12;;;;;;;;;;;;;;;24.03;31.56;99191.09;4484093;32;33921;-84
2022/05/02 09:00:55;;;;;;;;;;;;;;;23.74;31.97;99187.84;4483986;32;35118;-84
2022/05/02 09:03:42;;;;;;;;;;;;;;;23.19;34.13;99190.00;4483951;32;34234;-84
2022/05/02 09:06:25;;;;;;;;;;;;;;;24.09;33.18;99180.22;4484356;32;34293;-84
2022/05/02 09:09:10;;;;;;;;;;;;;;;24.61;31.90;99180.66;4469834;32;34293;-84
2022/05/02 09:11:47;;;;;;;;;;;;;;;24.73;33.42;99185.41;4477904;32;34265;-84
2022/05/02 09:14:27;;;;;;;;;;;;;;;24.81;31.79;99181.56;4475860;32;34221;-84
2022/05/02 09:16:58;;;;;;;;;;;;;;;24.37;32.32;99181.72;4469692;32;34085;-84
2022/05/02 09:19:45;;;;;;;;;;;;;;;24.06;32.50;99177.72;4483987;32;33985;-84
2022/05/02 09:22:31;;;;;;;;;;;;;;;24.63;32.06;99170.87;4474905;32;35342;-84
2022/05/02 09:25:05;;;;;;;;;;;;;;;24.16;32.13;99171.09;4472440;32;34438;-84
2022/05/02 09:27:39;;;;;;;;;;;;;;;24.23;32.25;99174.34;4468091;32;33567;-84
2022/05/02 09:30:34;;;;;;;;;;;;;;;24.64;32.40;99174.38;4468226;32;34099;-84
2022/05/02 09:33:20;;;;;;;;;;;;;;;23.64;31.51;99175.91;4462644;32;34490;-84
2022/05/02 09:36:02;;;;;;;;;;;;;;;23.02;32.69;99181.84;4472007;32;34524;-84
2022/05/02 09:38:34;;;;;;;;;;;;;;;23.74;30.87;99171.97;4454220;32;33932;-84
2022/05/02 09:41:11;;;;;;;;;;;;;;;24.04;31.84;99174.28;4468297;32;34956;-84
2022/05/02 09:49:38;;;;;;;;;;;;;;;23.91;30.98;99168.63;4455954;32;34005;-84
2022/05/02 09:52:09;;;;;;;;;;;;;;;23.67;31.21;99174.91;4468075;32;34123;-84
2022/05/02 09:57:38;;;;;;;;;;;;;;;23.89;30.89;99166.97;4455831;32;34310;-84
2022/05/02 10:03:08;;;;;;;;;;;;;;;24.53;29.97;99161.59;4467515;32;34888;-83
2022/05/02 10:06:08;;;;;;;;;;;;;;;23.65;31.61;99155.59;4467903;32;34025;-82
2022/05/02 10:08:41;;;;;;;;;;;;;;;23.65;31.05;99155.59;4449746;32;34161;-83
2022/05/02 10:11:15;;;;;;;;;;;;;;;24.22;29.50;99147.00;4468134;32;33557;-83
2022/05/02 10:13:58;;;;;;;;;;;;;;;24.37;30.24;99149.91;4467571;32;34119;-83
2022/05/02 10:16:44;;;;;;;;;;;;;;;24.77;28.91;99146.34;4467822;32;33982;-84
2022/05/02 10:19:31;;;;;;;;;;;;;;;25.18;28.37;99143.62;4470971;32;34930;-84
2022/05/02 10:22:12;;;;;;;;;;;;;;;24.63;30.36;99131.09;4467966;32;33492;-84
2022/05/02 10:25:00;;;;;;;;;;;;;;;24.43;30.40;99133.75;4454550;32;35172;-83
2022/05/02 10:27:36;;;;;;;;;;;;;;;25.43;28.89;99124.75;4470916;32;34201;-84
2022/05/02 10:30:06;;;;;;;;;;;;;;;25.70;28.25;99122.50;4460431;32;34391;-84
2022/05/02 10:32:52;;;;;;;;;;;;;;;25.03;28.87;99121.28;4467999;32;33740;-84
2022/05/02 10:35:21;;;;;;;;;;;;;;;25.24;29.07;99124.75;4460047;32;35068;-84
2022/05/02 10:37:51;;;;;;;;;;;;;;;25.80;27.50;99114.97;4459426;32;34179;-84
2022/05/02 10:40:18;;;;;;;;;;;;;;;25.99;28.82;99115.78;4472156;32;35010;-84
2022/05/02 10:42:46;;;;;;;;;;;;;;;26.19;25.54;99120.91;4457345;32;33508;-83
2022/05/02 10:45:14;;;;;;;;;;;;;;;24.52;28.33;99123.63;4463670;32;34463;-84
2022/05/02 10:47:51;;;;;;;;;;;;;;;24.72;27.87;99120.06;4464939;32;34096;-84
2022/05/02 10:50:25;;;;;;;;;;;;;;;24.77;28.84;99111.88;4458492;32;34302;-83
2022/05/02 10:53:11;;;;;;;;;;;;;;;23.21;30.17;99113.22;4454193;32;33278;-82
2022/05/02 10:55:44;;;;;;;;;;;;;;;23.89;30.04;99111.38;4480871;32;34012;-81
2022/05/02 10:58:11;;;;;;;;;;;;;;;23.88;30.25;99121.09;4456746;32;33170;-83
2022/05/02 11:00:43;;;;;;;;;;;;;;;23.67;29.91;99122.84;4467070;32;34449;-82
2022/05/02 11:03:22;;;;;;;;;;;;;;;23.55;29.01;99120.69;4465942;32;33325;-84
2022/05/02 11:06:03;;;;;;;;;;;;;;;24.34;28.52;99116.47;4467479;32;35105;-84
2022/05/02 11:08:31;;;;;;;;;;;;;;;24.15;27.56;99120.84;4460799;32;34218;-84
2022/05/02 11:10:59;;;;;;;;;;;;;;;24.55;27.63;99112.03;4482657;32;35720;-84
2022/05/02 11:13:31;;;;;;;;;;;;;;;25.43;27.59;99116.78;4468877;32;33626;-83
2022/05/02 11:16:02;;;;;;;;;;;;;;;25.07;26.83;99114.91;4468699;32;34110;-84
2022/05/02 11:21:35;;;;;;;;;;;;;;;25.13;27.47;99113.81;4467408;32;34175;-84
2022/05/02 11:24:17;;;;;;;;;;;;;;;26.09;26.22;99109.03;4467318;32;33327;-83
2022/05/02 11:26:47;;;;;;;;;;;;;;;26.06;25.98;99106.53;4453292;32;34016;-84
2022/05/02 11:29:17;;;;;;;;;;;;;;;25.94;26.40;99104.50;4469141;32;35191;-84
2022/05/02 11:31:50;;;;;;;;;;;;;;;26.47;26.55;99106.19;4468821;32;34571;-84
2022/05/02 11:34:23;;;;;;;;;;;;;;;26.63;26.86;99103.56;4481137;32;34919;-83
2022/05/02 11:36:55;;;;;;;;;;;;;;;26.57;26.51;99104.75;4468476;32;34173;-87
2022/05/02 11:39:41;;;;;;;;;;;;;;;26.08;26.08;99104.66;4482543;32;35158;-87
2022/05/02 11:42:09;;;;;;;;;;;;;;;26.58;25.65;99097.62;4482696;32;34327;-83
2022/05/02 11:44:54;;;;;;;;;;;;;;;26.66;24.79;99103.41;4468439;32;34110;-88
2022/05/02 11:47:26;;;;;;;;;;;;;;;26.77;24.15;99094.84;4468376;32;34288;-87
2022/05/02 11:50:00;;;;;;;;;;;;;;;26.50;25.58;99092.75;4468555;32;34502;-87
2022/05/02 11:52:35;;;;;;;;;;;;;;;24.97;26.10;99095.94;4469872;32;34513;-84
2022/05/02 11:55:04;;;;;;;;;;;;;;;25.27;25.50;99091.91;4466742;32;33389;-88
2022/05/02 11:57:31;;;;;;;;;;;;;;;25.92;26.58;99093.13;4468060;32;34375;-88
2022/05/02 12:00:05;;;;;;;;;;;;;;;26.56;26.97;99084.44;4482710;32;34158;-84
2022/05/02 12:03:02;;;;;;;;;;;;;;;26.86;26.62;99091.69;4482762;32;34504;-84
2022/05/02 12:05:42;;;;;;;;;;;;;;;25.88;25.01;99080.94;4426161;32;32955;-83
2022/05/02 12:08:10;;;;;;;;;;;;;;;26.17;24.44;99082.91;4454732;32;867318;-84
2022/05/02 12:10:41;;;;;;;;;;;;;;;26.72;23.51;99083.59;4482458;32;34198;-84
2022/05/02 12:13:12;;;;;;;;;;;;;;;26.32;24.65;99080.38;4482390;32;34021;-84
2022/05/02 12:15:55;;;;;;;;;;;;;;;25.66;25.55;99081.97;4468321;32;33683;-83
2022/05/02 12:18:22;;;;;;;;;;;;;;;25.12;26.09;99070.50;4481985;32;34092;-84
2022/05/02 12:20:53;;;;;;;;;;;;;;;26.43;25.58;99062.06;4484207;32;34281;-84
2022/05/02 12:23:20;;;;;;;;;;;;;;;26.59;24.92;99068.31;4468615;32;34058;-83
2022/05/02 12:25:49;;;;;;;;;;;;;;;26.33;25.32;99055.53;4484274;32;33313;-84
2022/05/02 12:28:41;;;;;;;;;;;;;;;25.69;25.27;99057.94;4469964;32;34387;-85
2022/05/02 12:31:09;;;;;;;;;;;;;;;26.19;24.68;99050.97;4472729;32;35262;-85
2022/05/02 12:33:39;;;;;;;;;;;;;;;26.47;24.99;99047.69;4470228;32;35195;-85
2022/05/02 12:36:10;;;;;;;;;;;;;;;25.93;24.77;99042.56;4456862;32;32393;-84
2022/05/02 12:38:39;;;;;;;;;;;;;;;24.96;25.03;99041.19;4469756;32;34016;-84
2022/05/02 12:41:06;;;;;;;;;;;;;;;25.27;26.31;99030.88;4469015;32;34375;-84
2022/05/02 12:43:42;;;;;;;;;;;;;;;25.83;25.53;99035.13;4469687;32;35288;-83
2022/05/02 12:46:09;;;;;;;;;;;;;;;25.08;27.51;99039.72;4470135;32;33460;-83
2022/05/02 12:48:38;;;;;;;;;;;;;;;25.90;25.69;99037.41;4484200;32;34327;-85
2022/05/02 12:51:06;;;;;;;;;;;;;;;26.11;24.52;99024.81;4469465;32;34369;-85
2022/05/02 12:56:19;;;;;;;;;;;;;;;27.06;25.36;99019.59;4472361;32;33716;-84
2022/05/02 13:01:43;;;;;;;;;;;;;;;26.93;23.75;99013.25;4483698;32;34097;-84
2022/05/02 13:04:14;;;;;;;;;;;;;;;25.93;25.11;99016.00;4469801;32;34655;-84
2022/05/02 13:06:42;;;;;;;;;;;;;;;27.52;24.12;99008.09;4483872;32;33614;-84
2022/05/02 13:09:14;;;;;;;;;;;;;;;27.48;23.51;98996.78;4484011;32;34342;-84
2022/05/02 13:11:42;;;;;;;;;;;;;;;27.19;23.56;98993.16;4468203;32;34179;-84
2022/05/02 13:14:18;;;;;;;;;;;;;;;25.67;25.35;99004.03;4483839;32;33940;-83
2022/05/02 13:16:46;;;;;;;;;;;;;;;24.94;25.76;99002.37;4484055;32;33572;-85
2022/05/02 13:19:13;;;;;;;;;;;;;;;24.96;25.94;98996.09;4483693;32;34103;-85
2022/05/02 13:21:40;;;;;;;;;;;;;;;25.27;25.63;98996.38;4483448;32;33816;-85
2022/05/02 13:24:10;;;;;;;;;;;;;;;25.99;24.27;98987.37;4484036;32;33984;-84
2022/05/02 13:26:42;;;;;;;;;;;;;;;26.26;24.23;98983.25;4483396;32;33275;-85
2022/05/02 13:29:13;;;;;;;;;;;;;;;27.15;23.93;98981.81;4483903;32;34266;-85
2022/05/02 13:31:41;;;;;;;;;;;;;;;27.51;23.04;98969.12;4467619;32;34069;-85
2022/05/02 13:34:11;;;;;;;;;;;;;;;26.10;23.76;98985.91;4483856;32;34473;-85
2022/05/02 13:36:42;;;;;;;;;;;;;;;26.96;22.74;98967.84;4467898;32;33504;-81
2022/05/02 13:39:18;;;;;;;;;;;;;;;26.57;22.65;98968.31;4467703;32;33244;-83
2022/05/02 13:41:50;;;;;;;;;;;;;;;25.98;23.81;98967.94;4480096;32;34359;-82
2022/05/02 13:44:22;;;;;;;;;;;;;;;27.85;21.63;98959.97;4468326;32;34442;-84
2022/05/02 13:47:08;;;;;;;;;;;;;;;27.09;22.72;98963.53;4483763;32;34290;-84